createdAt,value
2023-04-29T00:00:38.172Z,5.54
2023-04-29T00:03:05.070Z,5.52
2023-04-29T00:05:32.235Z,5.50
2023-04-29T00:07:59.139Z,5.49
2023-04-29T00:10:26.230Z,5.47
2023-04-29T00:12:53.842Z,5.45
2023-04-29T00:15:21.235Z,5.44
2023-04-29T00:17:47.938Z,5.43
2023-04-29T00:20:14.821Z,5.42
2023-04-29T00:22:41.516Z,5.40
2023-04-29T00:25:08.576Z,5.40
2023-04-29T00:27:35.322Z,5.39
2023-04-29T00:30:03.218Z,5.37
2023-04-29T00:32:30.704Z,5.36
2023-04-29T00:34:57.451Z,5.35
2023-04-29T00:37:24.302Z,5.33
2023-04-29T00:39:51.207Z,5.32
2023-04-29T00:42:18.091Z,5.30
2023-04-29T00:44:44.916Z,5.28
2023-04-29T00:47:12.081Z,5.27
2023-04-29T00:49:39.238Z,5.26
2023-04-29T00:52:09.025Z,5.25
2023-04-29T00:54:36.977Z,5.24
2023-04-29T00:57:05.795Z,5.22
2023-04-29T00:59:34.001Z,5.19
2023-04-29T01:02:02.518Z,5.18
2023-04-29T01:04:30.460Z,5.17
2023-04-29T01:07:23.619Z,5.17
2023-04-29T01:10:10.131Z,5.16
2023-04-29T01:12:50.466Z,5.13
2023-04-29T01:15:26.431Z,5.12
2023-04-29T01:18:05.044Z,5.09
2023-04-29T01:20:31.951Z,5.07
2023-04-29T01:22:58.856Z,5.04
2023-04-29T01:25:26.416Z,5.01
2023-04-29T01:28:26.720Z,4.99
2023-04-29T01:31:23.340Z,4.94
2023-04-29T01:34:05.619Z,4.92
2023-04-29T01:37:11.159Z,4.89
2023-04-29T01:40:08.933Z,4.86
2023-04-29T01:42:47.888Z,4.82
2023-04-29T01:45:17.397Z,4.81
2023-04-29T01:47:44.703Z,4.77
2023-04-29T01:50:11.535Z,4.74
2023-04-29T01:52:39.352Z,4.70
2023-04-29T01:55:07.084Z,4.67
2023-04-29T01:57:41.574Z,4.65
2023-04-29T02:00:29.075Z,4.63
2023-04-29T02:02:56.476Z,4.62
2023-04-29T02:05:33.422Z,4.60
2023-04-29T02:08:01.491Z,4.57
2023-04-29T02:10:29.426Z,4.53
2023-04-29T02:13:16.474Z,4.49
2023-04-29T02:15:43.697Z,4.46
2023-04-29T02:18:10.456Z,4.40
2023-04-29T02:20:37.806Z,4.31
2023-04-29T02:23:05.245Z,4.25
2023-04-29T02:25:33.313Z,4.21
2023-04-29T02:28:00.069Z,4.19
2023-04-29T02:30:26.805Z,4.16
2023-04-29T02:32:54.920Z,4.13
2023-04-29T02:35:21.645Z,4.09
2023-04-29T02:37:48.371Z,4.05
2023-04-29T02:40:15.576Z,4.04
2023-04-29T02:42:42.384Z,4.02
2023-04-29T02:45:10.048Z,3.99
2023-04-29T02:47:37.047Z,3.97
2023-04-29T02:50:04.240Z,3.94
2023-04-29T02:52:31.763Z,3.92
2023-04-29T02:54:58.669Z,3.91
2023-04-29T02:57:25.638Z,3.90
2023-04-29T02:59:54.147Z,3.89
2023-04-29T03:02:21.170Z,3.88
2023-04-29T03:04:50.729Z,3.85
2023-04-29T03:07:17.541Z,3.84
2023-04-29T03:09:44.726Z,3.84
2023-04-29T03:12:12.430Z,3.82
2023-04-29T03:14:39.242Z,3.82
2023-04-29T03:17:05.986Z,3.82
2023-04-29T03:19:33.009Z,3.83
2023-04-29T03:21:59.861Z,3.82
2023-04-29T03:24:26.602Z,3.82
2023-04-29T03:26:54.104Z,3.83
2023-04-29T03:29:20.919Z,3.84
2023-04-29T03:31:47.574Z,3.87
2023-04-29T03:34:15.074Z,3.88
2023-04-29T03:36:43.733Z,3.89
2023-04-29T03:39:12.000Z,3.91
2023-04-29T03:41:38.674Z,3.94
2023-04-29T03:44:05.389Z,3.98
2023-04-29T03:48:44.094Z,4.10
2023-04-29T03:51:11.258Z,4.15
2023-04-29T03:53:38.168Z,4.25
2023-04-29T03:56:05.624Z,4.34
2023-04-29T03:58:32.510Z,4.44
2023-04-29T04:00:59.379Z,4.60
2023-04-29T04:03:31.052Z,4.84
2023-04-29T04:05:58.123Z,5.03
2023-04-29T04:08:25.030Z,5.24
2023-04-29T04:11:02.863Z,5.50
2023-04-29T04:13:37.560Z,5.73
2023-04-29T04:16:05.289Z,5.89
2023-04-29T04:18:32.327Z,6.01
2023-04-29T04:21:05.940Z,6.14
2023-04-29T04:23:32.851Z,6.26
2023-04-29T04:26:01.620Z,6.38
2023-04-29T04:28:47.237Z,6.52
2023-04-29T04:31:20.808Z,6.68
2023-04-29T04:33:47.830Z,6.87
2023-04-29T04:36:15.131Z,7.06
2023-04-29T04:38:42.190Z,7.21
2023-04-29T04:41:13.222Z,7.33
2023-04-29T04:43:47.846Z,7.40
2023-04-29T04:46:20.454Z,7.51
2023-04-29T04:49:01.128Z,7.63
2023-04-29T04:51:29.477Z,7.73
2023-04-29T04:53:56.383Z,7.85
2023-04-29T04:56:26.608Z,7.97
2023-04-29T04:58:53.674Z,8.07
2023-04-29T05:01:21.207Z,8.17
2023-04-29T05:03:48.317Z,8.27
2023-04-29T05:06:16.337Z,8.38
2023-04-29T05:08:45.510Z,8.48
2023-04-29T05:11:22.330Z,8.56
2023-04-29T05:14:01.840Z,8.68
2023-04-29T05:16:28.984Z,8.78
2023-04-29T05:18:56.291Z,8.88
2023-04-29T05:21:25.444Z,8.99
2023-04-29T05:23:52.365Z,9.09
2023-04-29T05:26:19.285Z,9.19
2023-04-29T05:28:46.227Z,9.29
2023-04-29T05:31:13.907Z,9.38
2023-04-29T05:33:40.905Z,9.47
2023-04-29T05:36:08.371Z,9.56
2023-04-29T05:38:35.574Z,9.66
2023-04-29T05:41:04.933Z,9.73
2023-04-29T05:43:46.639Z,9.79
2023-04-29T05:46:16.587Z,9.85
2023-04-29T05:48:43.734Z,9.94
2023-04-29T05:51:10.854Z,10.02
2023-04-29T05:53:38.826Z,10.12
2023-04-29T05:56:08.381Z,10.21
2023-04-29T05:58:35.973Z,10.30
2023-04-29T06:01:03.349Z,10.36
2023-04-29T06:03:31.512Z,10.42
2023-04-29T06:06:17.133Z,10.47
2023-04-29T06:09:02.144Z,10.54
2023-04-29T06:11:31.648Z,10.61
2023-04-29T06:14:00.747Z,10.67
2023-04-29T06:16:28.334Z,10.74
2023-04-29T06:18:55.438Z,10.81
2023-04-29T06:21:22.300Z,10.88
2023-04-29T06:23:49.115Z,10.93
2023-04-29T06:26:17.114Z,10.96
2023-04-29T06:28:44.672Z,10.98
2023-04-29T06:31:11.963Z,11.00
2023-04-29T06:33:39.388Z,11.07
2023-04-29T06:36:06.529Z,11.13
2023-04-29T06:38:45.443Z,11.17
2023-04-29T06:41:34.179Z,11.21
2023-04-29T06:44:27.906Z,11.29
2023-04-29T06:47:05.075Z,11.34
2023-04-29T06:49:53.299Z,11.41
2023-04-29T06:52:21.834Z,11.46
2023-04-29T06:54:48.760Z,11.49
2023-04-29T06:57:15.648Z,11.54
2023-04-29T06:59:47.816Z,11.60
2023-04-29T07:02:14.770Z,11.67
2023-04-29T07:04:42.263Z,11.69
2023-04-29T07:07:09.888Z,11.71
2023-04-29T07:09:36.717Z,11.70
2023-04-29T07:12:05.005Z,11.72
2023-04-29T07:14:32.066Z,11.74
2023-04-29T07:16:59.224Z,11.76
2023-04-29T07:19:26.486Z,11.76
2023-04-29T07:21:53.269Z,11.78
2023-04-29T07:24:20.122Z,11.84
2023-04-29T07:26:48.965Z,11.91
2023-04-29T07:29:17.490Z,11.96
2023-04-29T07:31:44.528Z,11.97
2023-04-29T07:34:12.042Z,11.94
2023-04-29T07:36:39.354Z,11.91
2023-04-29T07:39:06.360Z,11.94
2023-04-29T07:41:33.335Z,11.95
2023-04-29T07:44:00.335Z,11.98
2023-04-29T07:46:27.319Z,12.03
2023-04-29T07:48:54.368Z,12.06
2023-04-29T07:51:21.945Z,12.09
2023-04-29T07:53:48.852Z,12.09
2023-04-29T07:56:16.396Z,12.12
2023-04-29T07:58:43.348Z,12.17
2023-04-29T08:01:11.990Z,12.24
2023-04-29T08:03:41.803Z,12.27
2023-04-29T08:06:09.794Z,12.34
2023-04-29T08:08:36.890Z,12.41
2023-04-29T08:11:04.706Z,12.51
2023-04-29T08:13:31.535Z,12.62
2023-04-29T08:15:58.340Z,12.67
2023-04-29T08:18:25.221Z,12.72
2023-04-29T08:20:52.178Z,12.80
2023-04-29T08:23:18.964Z,12.89
2023-04-29T08:25:45.883Z,13.01
2023-04-29T08:28:13.226Z,13.12
2023-04-29T08:30:41.082Z,13.27
2023-04-29T08:33:08.474Z,13.38
2023-04-29T08:35:38.799Z,13.47
2023-04-29T08:38:06.852Z,13.58
2023-04-29T08:40:37.354Z,13.68
2023-04-29T08:43:05.073Z,13.83
2023-04-29T08:45:32.675Z,14.02
2023-04-29T08:47:59.710Z,14.18
2023-04-29T08:50:26.622Z,14.31
2023-04-29T08:52:53.410Z,14.51
2023-04-29T08:55:20.349Z,14.73
2023-04-29T08:57:47.262Z,14.96
2023-04-29T09:00:14.156Z,15.19
2023-04-29T09:02:50.200Z,15.42
2023-04-29T09:05:17.192Z,15.70
2023-04-29T09:07:44.160Z,15.95
2023-04-29T09:10:11.835Z,16.18
2023-04-29T09:12:38.645Z,16.46
2023-04-29T09:15:06.336Z,16.83
2023-04-29T09:17:40.492Z,17.32
2023-04-29T09:20:28.422Z,17.91
2023-04-29T09:23:04.208Z,18.53
2023-04-29T09:25:31.685Z,19.10
2023-04-29T09:27:58.592Z,19.65
2023-04-29T09:30:27.000Z,20.19
2023-04-29T09:33:20.495Z,20.68
2023-04-29T09:35:48.780Z,21.30
2023-04-29T09:38:16.327Z,21.72
2023-04-29T09:40:58.179Z,22.09
2023-04-29T09:43:26.973Z,22.59
2023-04-29T09:45:54.013Z,23.02
2023-04-29T09:48:20.865Z,23.39
2023-04-29T09:51:01.638Z,23.79
2023-04-29T09:53:29.890Z,24.10
2023-04-29T09:56:02.881Z,24.27
2023-04-29T09:58:42.175Z,24.48
2023-04-29T10:01:09.172Z,24.82
2023-04-29T10:03:38.257Z,25.23
2023-04-29T10:06:06.808Z,25.60
2023-04-29T10:08:34.070Z,25.95
2023-04-29T10:11:02.359Z,26.21
2023-04-29T10:13:29.343Z,26.39
2023-04-29T10:16:01.291Z,26.49
2023-04-29T10:18:36.724Z,26.64
2023-04-29T10:21:06.592Z,26.97
2023-04-29T10:23:33.711Z,27.25
2023-04-29T10:26:01.109Z,27.41
2023-04-29T10:28:28.273Z,27.52
2023-04-29T10:30:55.101Z,27.88
2023-04-29T10:33:23.463Z,28.21
2023-04-29T10:35:51.361Z,28.48
2023-04-29T10:38:24.598Z,28.56
2023-04-29T10:40:51.502Z,28.60
2023-04-29T10:43:24.097Z,28.72
2023-04-29T10:45:50.958Z,28.96
2023-04-29T10:48:21.109Z,29.23
2023-04-29T10:50:48.169Z,29.39
2023-04-29T10:53:16.094Z,29.53
2023-04-29T10:55:43.516Z,29.55
2023-04-29T10:58:36.111Z,29.67
2023-04-29T11:01:03.322Z,29.80
2023-04-29T11:03:58.459Z,29.92
2023-04-29T11:06:39.855Z,29.84
2023-04-29T11:09:09.866Z,30.01
2023-04-29T11:11:46.636Z,30.33
2023-04-29T11:14:14.145Z,30.53
2023-04-29T11:16:55.398Z,30.62
2023-04-29T11:19:27.056Z,30.57
2023-04-29T11:22:10.201Z,30.56
2023-04-29T11:24:37.078Z,30.64
2023-04-29T11:27:06.810Z,30.77
2023-04-29T11:29:33.763Z,31.02
2023-04-29T11:32:02.097Z,31.25
2023-04-29T11:34:29.052Z,31.45
2023-04-29T11:36:56.508Z,31.88
2023-04-29T11:39:23.307Z,32.04
2023-04-29T11:41:52.499Z,32.25
2023-04-29T11:44:23.819Z,32.51
2023-04-29T11:46:50.675Z,32.55
2023-04-29T11:49:17.609Z,32.54
2023-04-29T11:51:44.548Z,32.58
2023-04-29T11:54:11.487Z,32.62
2023-04-29T11:56:38.544Z,32.72
2023-04-29T11:59:08.180Z,32.76
2023-04-29T12:01:36.152Z,32.70
2023-04-29T12:04:04.120Z,32.82
2023-04-29T12:06:31.801Z,32.94
2023-04-29T12:09:00.029Z,33.02
2023-04-29T12:11:26.991Z,33.24
2023-04-29T12:13:55.186Z,33.47
2023-04-29T12:16:24.277Z,33.62
2023-04-29T12:18:52.744Z,33.82
2023-04-29T12:21:19.582Z,34.06
2023-04-29T12:23:46.706Z,34.34
2023-04-29T12:26:13.964Z,34.53
2023-04-29T12:28:41.995Z,34.71
2023-04-29T12:31:10.248Z,34.71
2023-04-29T12:33:37.765Z,34.70
2023-04-29T12:36:05.078Z,34.66
2023-04-29T12:38:31.962Z,34.56
2023-04-29T12:40:59.744Z,34.23
2023-04-29T12:43:30.195Z,33.39
2023-04-29T12:46:08.161Z,32.01
2023-04-29T12:48:38.250Z,30.53
2023-04-29T12:51:05.311Z,29.24
2023-04-29T12:53:33.047Z,27.98
2023-04-29T12:56:00.044Z,26.81
2023-04-29T12:58:30.715Z,25.79
2023-04-29T13:00:58.442Z,24.80
2023-04-29T13:03:26.936Z,23.85
2023-04-29T13:05:55.069Z,23.00
2023-04-29T13:08:23.179Z,22.49
2023-04-29T13:10:51.052Z,21.98
2023-04-29T13:13:17.862Z,21.44
2023-04-29T13:15:45.020Z,20.89
2023-04-29T13:18:12.010Z,20.43
2023-04-29T13:20:42.320Z,20.06
2023-04-29T13:23:10.198Z,19.72
2023-04-29T13:25:37.141Z,19.38
2023-04-29T13:28:05.660Z,19.05
2023-04-29T13:30:33.444Z,18.81
2023-04-29T13:33:08.458Z,18.61
2023-04-29T13:35:40.318Z,18.38
2023-04-29T13:38:08.366Z,18.25
2023-04-29T13:40:39.446Z,18.16
2023-04-29T13:43:09.541Z,18.02
2023-04-29T13:45:41.531Z,17.84
2023-04-29T13:48:28.327Z,17.69
2023-04-29T13:51:41.231Z,17.53
2023-04-29T13:54:37.211Z,17.38
2023-04-29T14:04:01.520Z,16.98
2023-04-29T14:06:28.589Z,16.88
2023-04-29T14:08:55.613Z,16.81
2023-04-29T14:11:22.422Z,16.76
2023-04-29T14:13:49.693Z,16.67
2023-04-29T14:16:17.130Z,16.58
2023-04-29T14:18:44.023Z,16.52
2023-04-29T14:21:11.541Z,16.43
2023-04-29T14:23:38.402Z,16.33
2023-04-29T14:26:22.992Z,16.25
2023-04-29T14:28:59.700Z,16.20
2023-04-29T14:31:28.916Z,16.12
2023-04-29T14:33:59.507Z,16.03
2023-04-29T14:36:29.252Z,15.93
2023-04-29T14:38:56.165Z,15.87
2023-04-29T14:41:23.036Z,15.85
2023-04-29T14:43:50.002Z,15.82
2023-04-29T14:46:17.109Z,15.79
2023-04-29T14:48:44.297Z,15.72
2023-04-29T14:51:11.643Z,15.66
2023-04-29T14:53:39.151Z,15.61
2023-04-29T14:56:06.686Z,15.55
2023-04-29T14:58:35.017Z,15.50
2023-04-29T15:01:01.991Z,15.46
2023-04-29T15:03:28.986Z,15.45
2023-04-29T15:05:56.501Z,15.44
2023-04-29T15:08:23.581Z,15.40
2023-04-29T15:10:50.851Z,15.32
2023-04-29T15:13:17.956Z,15.23
2023-04-29T15:15:45.413Z,15.16
2023-04-29T15:18:12.400Z,15.11
2023-04-29T15:20:42.680Z,15.07
2023-04-29T15:23:10.028Z,15.03
2023-04-29T15:25:38.489Z,14.97
2023-04-29T15:28:06.075Z,14.90
2023-04-29T15:30:33.083Z,14.84
2023-04-29T15:33:00.288Z,14.76
2023-04-29T15:35:27.903Z,14.72
2023-04-29T15:37:55.153Z,14.70
2023-04-29T15:40:22.171Z,14.68
2023-04-29T15:42:49.059Z,14.63
2023-04-29T15:45:17.108Z,14.60
2023-04-29T15:47:44.188Z,14.55
2023-04-29T15:50:11.238Z,14.51
2023-04-29T15:52:38.038Z,14.46
2023-04-29T15:55:11.041Z,14.43
2023-04-29T15:57:41.508Z,14.40
2023-04-29T16:00:09.074Z,14.37
2023-04-29T16:02:36.101Z,14.36
2023-04-29T16:06:52.545Z,14.34
2023-04-29T16:09:21.546Z,14.30
2023-04-29T16:11:48.541Z,14.30
2023-04-29T16:14:15.358Z,14.28
2023-04-29T16:16:42.323Z,14.23
2023-04-29T16:19:09.295Z,14.21
2023-04-29T16:21:36.534Z,14.19
2023-04-29T16:24:03.530Z,14.17
2023-04-29T16:26:32.217Z,14.14
2023-04-29T16:28:59.913Z,14.12
2023-04-29T16:31:27.811Z,14.10
2023-04-29T16:33:56.557Z,14.09
2023-04-29T16:36:24.038Z,14.04
2023-04-29T16:38:54.412Z,14.00
2023-04-29T16:41:26.204Z,13.97
2023-04-29T16:43:55.839Z,13.93
2023-04-29T16:46:22.558Z,13.90
2023-04-29T16:48:51.763Z,13.86
2023-04-29T16:51:18.675Z,13.83
2023-04-29T16:53:45.754Z,13.81
2023-04-29T16:56:16.239Z,13.76
2023-04-29T16:58:42.928Z,13.72
2023-04-29T17:01:09.711Z,13.67
2023-04-29T17:03:36.787Z,13.63
2023-04-29T17:06:04.895Z,13.58
2023-04-29T17:08:32.732Z,13.52
2023-04-29T17:10:59.353Z,13.48
2023-04-29T17:13:26.679Z,13.44
2023-04-29T17:15:53.422Z,13.42
2023-04-29T17:18:20.462Z,13.39
2023-04-29T17:20:48.774Z,13.35
2023-04-29T17:23:17.718Z,13.31
2023-04-29T17:25:44.604Z,13.28
2023-04-29T17:28:11.559Z,13.24
2023-04-29T17:30:38.894Z,13.20
2023-04-29T17:33:06.226Z,13.14
2023-04-29T17:35:33.661Z,13.11
2023-04-29T17:38:00.498Z,13.08
2023-04-29T17:40:27.561Z,13.05
2023-04-29T17:42:54.626Z,13.01
2023-04-29T17:45:21.274Z,12.96
2023-04-29T17:47:48.026Z,12.92
2023-04-29T17:50:14.935Z,12.87
2023-04-29T17:52:42.917Z,12.82
2023-04-29T17:55:10.163Z,12.76
2023-04-29T17:57:40.396Z,12.71
2023-04-29T18:00:07.894Z,12.67
2023-04-29T18:02:35.225Z,12.62
2023-04-29T18:05:02.850Z,12.57
2023-04-29T18:07:30.147Z,12.51
2023-04-29T18:09:57.746Z,12.46
2023-04-29T18:12:25.185Z,12.41
2023-04-29T18:14:52.117Z,12.36
2023-04-29T18:17:19.418Z,12.30
2023-04-29T18:19:48.705Z,12.23
2023-04-29T18:22:15.584Z,12.17
2023-04-29T18:24:42.523Z,12.12
2023-04-29T18:27:09.212Z,12.06
2023-04-29T18:29:35.862Z,12.01
2023-04-29T18:32:03.907Z,11.95
2023-04-29T18:34:32.112Z,11.91
2023-04-29T18:36:59.055Z,11.85
2023-04-29T18:39:25.910Z,11.81
2023-04-29T18:41:52.753Z,11.76
2023-04-29T18:44:19.580Z,11.71
2023-04-29T18:46:46.355Z,11.65
2023-04-29T18:49:16.239Z,11.60
2023-04-29T18:51:46.183Z,11.56
2023-04-29T18:54:19.441Z,11.51
2023-04-29T18:56:47.339Z,11.45
2023-04-29T18:59:18.382Z,11.39
2023-04-29T19:01:45.823Z,11.32
2023-04-29T19:04:13.002Z,11.27
2023-04-29T19:06:41.045Z,11.22
2023-04-29T19:09:07.916Z,11.17
2023-04-29T19:11:34.727Z,11.12
2023-04-29T19:14:03.451Z,11.07
2023-04-29T19:16:30.443Z,11.04
2023-04-29T19:18:57.234Z,11.01
2023-04-29T19:21:23.943Z,10.97
2023-04-29T19:23:50.735Z,10.94
2023-04-29T19:26:17.386Z,10.90
2023-04-29T19:28:44.142Z,10.86
2023-04-29T19:31:11.223Z,10.82
2023-04-29T19:33:38.322Z,10.78
2023-04-29T19:36:05.008Z,10.76
2023-04-29T19:38:31.890Z,10.73
2023-04-29T19:40:58.538Z,10.69
2023-04-29T19:43:25.274Z,10.65
2023-04-29T19:45:51.981Z,10.61
2023-04-29T19:48:18.840Z,10.59
2023-04-29T19:50:45.620Z,10.56
2023-04-29T19:53:12.572Z,10.53
2023-04-29T19:55:39.435Z,10.50
2023-04-29T19:58:07.649Z,10.47
2023-04-29T20:00:34.476Z,10.44
2023-04-29T20:03:02.043Z,10.41
2023-04-29T20:05:29.148Z,10.39
2023-04-29T20:07:56.406Z,10.37
2023-04-29T20:10:23.166Z,10.37
2023-04-29T20:12:50.145Z,10.35
2023-04-29T20:15:16.923Z,10.34
2023-04-29T20:17:43.760Z,10.33
2023-04-29T20:20:10.929Z,10.32
2023-04-29T20:22:38.464Z,10.29
2023-04-29T20:25:05.920Z,10.29
2023-04-29T20:27:32.718Z,10.28
2023-04-29T20:29:59.646Z,10.26
2023-04-29T20:32:26.893Z,10.23
2023-04-29T20:34:53.886Z,10.23
2023-04-29T20:37:20.898Z,10.20
2023-04-29T20:39:48.166Z,10.19
2023-04-29T20:42:14.809Z,10.17
2023-04-29T20:44:41.588Z,10.15
2023-04-29T20:47:08.319Z,10.13
2023-04-29T20:49:35.223Z,10.11
2023-04-29T20:52:02.312Z,10.10
2023-04-29T20:54:29.137Z,10.09
2023-04-29T20:56:56.244Z,10.06
2023-04-29T20:59:23.364Z,10.02
2023-04-29T21:01:50.353Z,10.00
2023-04-29T21:04:17.217Z,9.98
2023-04-29T21:06:44.102Z,9.96
2023-04-29T21:09:11.364Z,9.94
2023-04-29T21:11:38.136Z,9.91
2023-04-29T21:14:04.882Z,9.89
2023-04-29T21:16:31.698Z,9.88
2023-04-29T21:18:58.448Z,9.86
2023-04-29T21:21:25.678Z,9.81
2023-04-29T21:23:52.447Z,9.77
2023-04-29T21:26:19.080Z,9.74
2023-04-29T21:28:48.174Z,9.70
2023-04-29T21:31:15.739Z,9.66
2023-04-29T21:33:45.672Z,9.61
2023-04-29T21:36:12.726Z,9.59
2023-04-29T21:38:41.891Z,9.58
2023-04-29T21:41:16.702Z,9.58
2023-04-29T21:43:43.510Z,9.56
2023-04-29T21:46:10.246Z,9.50
2023-04-29T21:48:37.597Z,9.47
2023-04-29T21:51:06.769Z,9.44
2023-04-29T21:53:34.508Z,9.43
2023-04-29T21:56:01.300Z,9.42
2023-04-29T21:58:28.174Z,9.42
2023-04-29T22:01:02.771Z,9.42
2023-04-29T22:03:29.830Z,9.39
2023-04-29T22:05:57.103Z,9.36
2023-04-29T22:08:27.020Z,9.34
2023-04-29T22:10:53.707Z,9.32
2023-04-29T22:13:21.017Z,9.27
2023-04-29T22:15:47.921Z,9.22
2023-04-29T22:18:14.823Z,9.19
2023-04-29T22:20:41.557Z,9.16
2023-04-29T22:23:11.794Z,9.14
2023-04-29T22:25:38.511Z,9.14
2023-04-29T22:28:05.329Z,9.14
2023-04-29T22:30:32.120Z,9.13
2023-04-29T22:32:58.810Z,9.13
2023-04-29T22:35:25.510Z,9.12
2023-04-29T22:37:52.235Z,9.11
2023-04-29T22:40:18.969Z,9.06
2023-04-29T22:42:45.716Z,9.02
2023-04-29T22:45:12.686Z,8.98
2023-04-29T22:47:39.484Z,8.89
2023-04-29T22:50:07.049Z,8.82
2023-04-29T22:52:34.178Z,8.74
2023-04-29T22:55:01.046Z,8.70
2023-04-29T22:57:28.141Z,8.66
2023-04-29T22:59:56.719Z,8.63
2023-04-29T23:02:30.403Z,8.62
2023-04-29T23:04:58.730Z,8.62
2023-04-29T23:07:26.962Z,8.58
2023-04-29T23:09:53.979Z,8.56
2023-04-29T23:12:21.138Z,8.54
2023-04-29T23:14:50.277Z,8.54
2023-04-29T23:17:16.942Z,8.51
2023-04-29T23:19:43.722Z,8.48
2023-04-29T23:22:10.549Z,8.43
2023-04-29T23:24:37.559Z,8.39
2023-04-29T23:27:05.587Z,8.38
2023-04-29T23:29:33.485Z,8.33
2023-04-29T23:32:00.616Z,8.30
2023-04-29T23:34:27.326Z,8.28
2023-04-29T23:36:54.564Z,8.25
2023-04-29T23:39:21.368Z,8.20
2023-04-29T23:41:48.088Z,8.14
2023-04-29T23:44:14.879Z,8.12
2023-04-29T23:46:41.688Z,8.10
2023-04-29T23:49:09.796Z,8.07
2023-04-29T23:51:36.950Z,8.04
2023-04-29T23:54:03.714Z,8.03
2023-04-29T23:56:33.112Z,8.01
2023-04-29T23:59:00.143Z,7.98
